Time;durP1;ratioP1;P1;durP2;ratioP2;P2;SDS_P1;SDS_P2;PMS_P1;PMS_P2;Temp;Humidity;BMP_temperature;BMP_pressure;BME280_temperature;BME280_humidity;BME280_pressure;Samples;Min_cycle;Max_cycle;Signal;HPM_P1;HPM_P2
2021/08/17 04:02:45;;;;;;;4.40;2.73;;;14.00;99.90;;;;;;4932318;26;20485;-69
2021/08/17 04:05:12;;;;;;;4.13;3.73;;;14.10;99.90;;;;;;4916409;29;20458;-69
2021/08/17 04:07:39;;;;;;;5.43;2.90;;;14.10;99.90;;;;;;4922193;29;20581;-69
2021/08/17 04:10:07;;;;;;;5.63;3.30;;;14.10;99.90;;;;;;4933784;29;20837;-70
2021/08/17 04:12:33;;;;;;;5.07;3.37;;;14.10;99.90;;;;;;4915500;29;20466;-70
2021/08/17 04:15:00;;;;;;;8.53;2.80;;;14.10;99.90;;;;;;4899151;29;20471;-69
2021/08/17 04:17:27;;;;;;;4.30;2.67;;;14.10;99.90;;;;;;4909230;29;20517;-70
2021/08/17 04:19:54;;;;;;;6.53;3.07;;;14.10;99.90;;;;;;4916649;29;20467;-67
2021/08/17 04:22:21;;;;;;;3.67;3.20;;;14.20;99.90;;;;;;4904048;29;20506;-70
2021/08/17 04:24:48;;;;;;;4.60;2.80;;;14.20;99.90;;;;;;4900536;29;20483;-67
2021/08/17 04:27:15;;;;;;;6.70;3.00;;;14.10;99.90;;;;;;4915694;29;20463;-67
2021/08/17 04:29:43;;;;;;;4.00;2.57;;;14.20;99.90;;;;;;4919270;29;21080;-68
2021/08/17 04:32:10;;;;;;;2.97;2.03;;;14.20;99.90;;;;;;4906383;29;20487;-69
2021/08/17 04:34:37;;;;;;;3.93;2.97;;;14.20;99.90;;;;;;4897193;29;20546;-68
2021/08/17 04:37:05;;;;;;;3.60;2.67;;;14.20;99.90;;;;;;4900161;29;21021;-69
2021/08/17 04:39:32;;;;;;;4.27;3.17;;;14.20;99.90;;;;;;4897157;29;20495;-69
2021/08/17 04:41:59;;;;;;;3.10;2.80;;;14.30;99.90;;;;;;4899061;29;20598;-69
2021/08/17 04:44:25;;;;;;;2.77;2.10;;;14.30;99.90;;;;;;4898454;29;20967;-69
2021/08/17 04:46:52;;;;;;;2.10;2.10;;;14.30;99.90;;;;;;4915556;29;20467;-70
2021/08/17 04:49:19;;;;;;;2.53;2.20;;;14.30;99.90;;;;;;4914920;29;20494;-69
2021/08/17 04:51:45;;;;;;;3.07;2.13;;;14.40;99.90;;;;;;4904240;29;20627;-69
2021/08/17 04:54:13;;;;;;;3.57;2.00;;;14.30;99.90;;;;;;4918192;29;20951;-69
2021/08/17 04:56:40;;;;;;;3.50;1.60;;;14.30;99.90;;;;;;4906964;29;20470;-69
2021/08/17 04:59:07;;;;;;;2.23;2.00;;;14.30;99.90;;;;;;4919748;29;20518;-69
2021/08/17 05:01:33;;;;;;;2.83;2.50;;;14.40;99.90;;;;;;4915879;29;20569;-69
2021/08/17 05:04:02;;;;;;;2.97;2.17;;;14.40;99.90;;;;;;4919499;29;20955;-69
2021/08/17 05:06:29;;;;;;;2.47;1.70;;;14.40;99.90;;;;;;4915525;29;20467;-68
2021/08/17 05:08:56;;;;;;;2.70;2.50;;;14.40;99.90;;;;;;4919352;29;20541;-68
2021/08/17 05:11:24;;;;;;;2.60;2.30;;;14.40;99.90;;;;;;4913758;29;20495;-68
2021/08/17 05:13:50;;;;;;;2.77;2.57;;;14.40;99.90;;;;;;4912098;29;20538;-68
2021/08/17 05:16:17;;;;;;;2.53;2.30;;;14.40;99.90;;;;;;4919709;29;20573;-68
2021/08/17 05:18:45;;;;;;;4.43;2.60;;;14.40;99.90;;;;;;4912669;29;20458;-68
2021/08/17 05:21:11;;;;;;;2.20;2.10;;;14.40;99.90;;;;;;4918517;29;20529;-68
2021/08/17 05:23:38;;;;;;;2.40;2.27;;;14.30;99.90;;;;;;4912160;29;20466;-69
2021/08/17 05:26:05;;;;;;;2.60;2.40;;;14.30;99.90;;;;;;4919223;29;20474;-68
2021/08/17 05:28:33;;;;;;;3.07;2.40;;;14.30;99.90;;;;;;4901624;29;20512;-69
2021/08/17 05:30:59;;;;;;;2.40;2.30;;;14.40;99.90;;;;;;4899775;29;20495;-68
2021/08/17 05:33:26;;;;;;;2.70;2.60;;;14.40;99.90;;;;;;4915137;29;20858;-68
2021/08/17 05:35:52;;;;;;;2.70;2.60;;;14.40;99.90;;;;;;4918197;29;20959;-69
2021/08/17 05:38:19;;;;;;;2.93;2.37;;;14.40;99.90;;;;;;4904526;29;20512;-69
2021/08/17 05:40:46;;;;;;;2.97;2.77;;;14.50;99.90;;;;;;4916900;29;20490;-69
2021/08/17 05:43:12;;;;;;;2.53;2.33;;;14.50;99.90;;;;;;4905624;29;20467;-68
2021/08/17 05:45:40;;;;;;;2.33;2.13;;;14.50;99.90;;;;;;4914706;29;20537;-68
2021/08/17 05:48:07;;;;;;;2.50;2.30;;;14.50;99.90;;;;;;4907006;29;20511;-68
2021/08/17 05:50:34;;;;;;;2.73;2.57;;;14.50;99.90;;;;;;4913059;29;20490;-69
2021/08/17 05:53:00;;;;;;;6.57;2.40;;;14.50;99.90;;;;;;4912556;29;20570;-68
2021/08/17 05:55:27;;;;;;;2.23;2.13;;;14.50;99.90;;;;;;4917882;29;20470;-69
2021/08/17 05:57:56;;;;;;;6.03;2.90;;;14.40;99.90;;;;;;4905584;29;20864;-68
2021/08/17 06:00:22;;;;;;;3.53;3.23;;;14.40;99.90;;;;;;4904835;29;20455;-69
2021/08/17 06:02:50;;;;;;;2.80;2.40;;;14.40;99.90;;;;;;4901886;29;20847;-68
2021/08/17 06:05:17;;;;;;;3.80;3.03;;;14.40;99.90;;;;;;4916836;29;20934;-69
2021/08/17 06:07:47;;;;;;;4.87;3.33;;;14.40;99.90;;;;;;4917727;29;20481;-69
2021/08/17 06:10:15;;;;;;;6.50;3.37;;;14.50;99.90;;;;;;4917882;29;20492;-70
2021/08/17 06:12:42;;;;;;;4.00;3.70;;;14.50;99.90;;;;;;4916653;29;20877;-69
2021/08/17 06:15:10;;;;;;;4.93;3.17;;;14.50;99.90;;;;;;4904935;29;20802;-70
2021/08/17 06:17:37;;;;;;;4.37;4.07;;;14.60;99.90;;;;;;4917877;29;20501;-70
2021/08/17 06:20:06;;;;;;;5.17;4.60;;;14.70;99.90;;;;;;4902181;29;20586;-69
2021/08/17 06:22:33;;;;;;;3.50;3.20;;;14.70;99.90;;;;;;4898783;29;20526;-69
2021/08/17 06:25:00;;;;;;;4.27;3.40;;;14.70;99.90;;;;;;4916287;29;20458;-70
2021/08/17 06:27:27;;;;;;;4.00;2.97;;;14.70;99.90;;;;;;4917453;29;20585;-69
2021/08/17 06:29:53;;;;;;;6.23;3.27;;;14.70;99.90;;;;;;4903474;29;20487;-69
2021/08/17 06:32:21;;;;;;;4.97;2.80;;;14.70;99.90;;;;;;4917564;29;21007;-69
2021/08/17 06:34:48;;;;;;;2.90;2.70;;;14.70;99.90;;;;;;4903405;29;20475;-70
2021/08/17 06:37:16;;;;;;;9.03;3.03;;;14.70;99.90;;;;;;4916621;29;20482;-70
2021/08/17 06:39:42;;;;;;;3.23;2.97;;;14.80;99.90;;;;;;4910230;29;20458;-70
2021/08/17 06:42:09;;;;;;;2.77;2.60;;;14.90;99.90;;;;;;4912528;29;20494;-69
2021/08/17 06:44:36;;;;;;;2.90;2.70;;;15.10;99.90;;;;;;4917581;29;20473;-69
2021/08/17 06:47:04;;;;;;;5.03;3.30;;;15.30;99.90;;;;;;4900404;29;20464;-69
2021/08/17 06:49:30;;;;;;;4.67;2.67;;;15.60;99.90;;;;;;4914123;29;20490;-69
2021/08/17 06:51:57;;;;;;;3.87;2.53;;;15.70;99.90;;;;;;4909543;29;20517;-69
2021/08/17 06:54:25;;;;;;;6.67;3.50;;;15.90;99.90;;;;;;4914667;29;20880;-69
2021/08/17 06:56:52;;;;;;;3.27;2.40;;;16.10;99.90;;;;;;4913641;29;20478;-69
2021/08/17 06:59:18;;;;;;;3.37;3.17;;;16.10;99.90;;;;;;4900638;29;21090;-69
2021/08/17 07:01:45;;;;;;;3.77;2.63;;;16.10;99.90;;;;;;4898402;29;20503;-69
2021/08/17 07:04:11;;;;;;;2.53;2.00;;;15.90;99.90;;;;;;4913666;29;20533;-69
2021/08/17 07:06:38;;;;;;;4.80;3.33;;;15.80;99.90;;;;;;4913349;29;20458;-69
2021/08/17 07:09:05;;;;;;;5.20;3.10;;;15.70;99.90;;;;;;4911017;29;20491;-69
2021/08/17 07:11:33;;;;;;;3.73;3.40;;;15.60;99.90;;;;;;4916696;29;20853;-70
2021/08/17 07:14:00;;;;;;;7.13;3.60;;;15.50;99.90;;;;;;4914786;29;20557;-70
2021/08/17 07:16:26;;;;;;;4.73;3.80;;;15.40;99.90;;;;;;4915803;29;20470;-71
2021/08/17 07:18:53;;;;;;;3.33;2.77;;;15.30;99.90;;;;;;4912780;29;20467;-71
2021/08/17 07:21:20;;;;;;;5.57;4.27;;;15.30;99.90;;;;;;4902613;28;20503;-70
2021/08/17 07:23:46;;;;;;;5.33;3.03;;;15.30;99.90;;;;;;4912346;29;20479;-69
2021/08/17 07:26:13;;;;;;;4.90;4.13;;;15.30;99.90;;;;;;4915129;29;20471;-70
2021/08/17 07:28:41;;;;;;;5.10;3.20;;;15.20;99.90;;;;;;4901213;29;20553;-69
2021/08/17 07:31:08;;;;;;;4.27;3.97;;;15.10;99.90;;;;;;4917241;29;20656;-71
2021/08/17 07:33:35;;;;;;;5.30;4.23;;;15.10;99.90;;;;;;4915711;29;20470;-70
2021/08/17 07:36:01;;;;;;;5.80;4.53;;;15.10;99.90;;;;;;4914451;29;20585;-71
2021/08/17 07:38:28;;;;;;;10.67;4.53;;;15.10;99.90;;;;;;4914036;29;20967;-71
2021/08/17 07:40:55;;;;;;;6.00;4.30;;;15.00;99.90;;;;;;4905663;29;20479;-71
2021/08/17 07:43:22;;;;;;;5.77;3.90;;;15.00;99.90;;;;;;4906086;29;21006;-71
2021/08/17 07:45:50;;;;;;;3.90;3.53;;;14.90;99.90;;;;;;4916336;29;20958;-71
2021/08/17 07:48:16;;;;;;;5.53;3.57;;;14.90;99.90;;;;;;4915047;29;20641;-70
2021/08/17 07:50:43;;;;;;;7.23;3.90;;;14.90;99.90;;;;;;4914298;29;21006;-70
2021/08/17 07:53:10;;;;;;;4.23;4.03;;;14.90;99.90;;;;;;4913377;29;20478;-71
2021/08/17 07:55:37;;;;;;;4.60;4.17;;;14.90;99.90;;;;;;4914001;29;20561;-70
2021/08/17 07:58:04;;;;;;;5.00;4.50;;;14.80;99.90;;;;;;4906106;29;20463;-71
2021/08/17 08:00:31;;;;;;;6.87;4.97;;;14.80;99.90;;;;;;4907405;29;20596;-70
2021/08/17 08:02:59;;;;;;;6.10;4.57;;;14.80;99.90;;;;;;4914901;29;20488;-70
2021/08/17 08:05:25;;;;;;;6.70;4.80;;;14.80;99.90;;;;;;4912058;29;20577;-70
2021/08/17 08:07:52;;;;;;;4.10;3.77;;;14.70;99.90;;;;;;4907408;29;20483;-70
2021/08/17 08:10:19;;;;;;;4.83;4.40;;;14.70;99.90;;;;;;4912441;29;21066;-70
2021/08/17 08:12:45;;;;;;;8.53;4.40;;;14.80;99.90;;;;;;4914744;29;20470;-70
2021/08/17 08:15:12;;;;;;;4.90;4.50;;;14.80;99.90;;;;;;4915396;29;20466;-70
2021/08/17 08:17:39;;;;;;;4.93;4.30;;;14.80;99.90;;;;;;4915035;29;20467;-68
2021/08/17 08:20:09;;;;;;;7.27;4.60;;;14.80;99.90;;;;;;4913520;29;20454;-69
2021/08/17 08:22:36;;;;;;;9.37;4.97;;;14.90;99.90;;;;;;4917235;29;20466;-70
2021/08/17 08:25:03;;;;;;;11.90;4.50;;;15.00;99.90;;;;;;4914215;29;20978;-69
2021/08/17 08:27:30;;;;;;;6.10;4.40;;;15.00;99.90;;;;;;4917852;29;20533;-68
2021/08/17 08:29:57;;;;;;;7.03;4.30;;;15.00;99.90;;;;;;4917903;29;20993;-69
2021/08/17 08:32:23;;;;;;;8.40;4.30;;;15.10;99.90;;;;;;4915781;29;20864;-71
2021/08/17 08:34:50;;;;;;;7.60;4.17;;;15.20;99.90;;;;;;4903256;29;20477;-70
2021/08/17 08:37:18;;;;;;;5.80;3.90;;;15.20;99.90;;;;;;4911870;29;20482;-70
2021/08/17 08:39:45;;;;;;;5.53;3.87;;;15.20;99.90;;;;;;4898144;29;20471;-69
2021/08/17 08:42:12;;;;;;;6.30;3.80;;;15.30;99.90;;;;;;4904312;28;20982;-69
2021/08/17 08:44:39;;;;;;;9.60;4.70;;;15.30;99.90;;;;;;4916277;29;20462;-69
2021/08/17 08:47:06;;;;;;;6.77;3.43;;;15.30;99.90;;;;;;4914743;29;20485;-71
2021/08/17 08:49:33;;;;;;;7.60;3.17;;;15.30;99.90;;;;;;4914113;29;20518;-71
2021/08/17 08:52:00;;;;;;;11.20;3.90;;;15.30;99.90;;;;;;4914112;29;20577;-69
2021/08/17 08:54:28;;;;;;;5.10;4.03;;;15.30;99.90;;;;;;4912974;29;20478;-69
2021/08/17 08:56:55;;;;;;;4.93;3.50;;;15.30;99.90;;;;;;4914762;29;20463;-69
2021/08/17 08:59:22;;;;;;;4.00;3.47;;;15.30;99.90;;;;;;4914033;29;20987;-69
2021/08/17 09:01:50;;;;;;;10.33;3.90;;;15.30;99.90;;;;;;4914171;29;20510;-69
2021/08/17 09:04:17;;;;;;;8.03;3.57;;;15.30;99.90;;;;;;4911707;29;20553;-69
2021/08/17 09:06:53;;;;;;;7.57;3.23;;;15.40;99.90;;;;;;4913568;29;20483;-69
2021/08/17 09:09:20;;;;;;;10.83;3.90;;;15.50;99.90;;;;;;4913695;29;20497;-69
2021/08/17 09:11:51;;;;;;;4.33;3.30;;;15.60;99.90;;;;;;4907484;29;20490;-69
2021/08/17 09:14:23;;;;;;;6.30;3.30;;;15.60;99.90;;;;;;4914399;29;20492;-69
2021/08/17 09:16:53;;;;;;;6.77;3.83;;;15.60;99.90;;;;;;4914417;29;20514;-68
2021/08/17 09:19:32;;;;;;;9.63;3.73;;;15.70;99.90;;;;;;4914499;29;20489;-69
2021/08/17 09:22:01;;;;;;;9.00;3.40;;;15.90;99.90;;;;;;4912516;29;21037;-71
2021/08/17 09:24:30;;;;;;;6.80;3.50;;;16.00;99.90;;;;;;4913614;29;20580;-70
2021/08/17 09:26:59;;;;;;;5.37;2.97;;;16.10;99.90;;;;;;4914320;29;20462;-71
2021/08/17 09:29:30;;;;;;;3.63;3.40;;;16.10;99.90;;;;;;4914479;29;20835;-71
2021/08/17 09:31:59;;;;;;;9.00;2.90;;;16.10;99.90;;;;;;4911793;29;20501;-71
2021/08/17 09:34:32;;;;;;;3.27;2.97;;;16.10;99.90;;;;;;4913355;29;20489;-70
2021/08/17 09:37:04;;;;;;;4.30;2.57;;;16.20;99.90;;;;;;4915347;29;20477;-71
2021/08/17 09:39:33;;;;;;;6.97;3.00;;;16.20;99.90;;;;;;4911436;29;20458;-71
2021/08/17 09:42:19;;;;;;;7.70;3.13;;;16.10;99.90;;;;;;4912468;29;20527;-71
2021/08/17 09:44:49;;;;;;;6.93;3.23;;;16.10;99.90;;;;;;4913332;29;20500;-71
2021/08/17 09:47:15;;;;;;;7.73;3.67;;;16.10;99.90;;;;;;4917235;29;20911;-70
2021/08/17 09:49:42;;;;;;;4.80;2.40;;;16.10;99.90;;;;;;4918088;29;20486;-70
2021/08/17 09:52:15;;;;;;;6.80;3.03;;;16.10;99.90;;;;;;4918051;29;20482;-71
2021/08/17 09:54:44;;;;;;;7.47;3.37;;;16.30;99.90;;;;;;4915746;29;20470;-71
2021/08/17 09:57:13;;;;;;;2.70;2.50;;;16.40;99.90;;;;;;4918995;29;20830;-70
2021/08/17 09:59:42;;;;;;;3.83;2.80;;;16.50;99.90;;;;;;4918003;29;20467;-70
2021/08/17 10:02:10;;;;;;;6.73;2.67;;;16.50;99.90;;;;;;4918042;28;20896;-71
2021/08/17 10:04:38;;;;;;;3.67;3.20;;;16.60;99.90;;;;;;4918486;29;20801;-70
2021/08/17 10:07:07;;;;;;;9.03;2.97;;;16.70;99.90;;;;;;4910466;29;20478;-72
2021/08/17 10:09:35;;;;;;;4.90;2.80;;;16.70;99.90;;;;;;4918101;29;20490;-67
2021/08/17 10:12:04;;;;;;;5.30;2.93;;;16.70;99.90;;;;;;4917479;29;20486;-69
2021/08/17 10:14:33;;;;;;;6.23;3.67;;;16.70;99.90;;;;;;4917077;29;20486;-70
2021/08/17 10:16:59;;;;;;;4.20;3.17;;;16.70;99.90;;;;;;4916231;29;20537;-68
2021/08/17 10:19:28;;;;;;;7.47;3.10;;;16.70;99.90;;;;;;4916776;29;20466;-71
2021/08/17 10:21:57;;;;;;;4.77;2.43;;;16.70;99.90;;;;;;4917676;29;20935;-68
2021/08/17 10:24:29;;;;;;;7.13;2.40;;;16.60;99.90;;;;;;4917089;29;20855;-66
2021/08/17 10:27:19;;;;;;;4.72;3.70;;;16.60;99.90;;;;;;4915117;28;20479;-66
2021/08/17 10:29:59;;;;;;;19.25;5.43;;;16.70;99.90;;;;;;4916600;29;20463;-66
2021/08/17 10:32:54;;;;;;;8.70;2.97;;;16.80;99.90;;;;;;4916831;29;20494;-66
2021/08/17 10:35:33;;;;;;;4.60;2.43;;;16.80;99.90;;;;;;4912147;29;20466;-69
2021/08/17 10:38:59;;;;;;;;;;;;;;;;;;;;;
2021/08/17 10:41:34;;;;;;;5.07;2.70;;;17.10;99.90;;;;;;4913066;29;20475;-69
2021/08/17 10:44:13;;;;;;;2.07;1.87;;;17.30;99.90;;;;;;4916115;29;20899;-68
2021/08/17 10:47:07;;;;;;;3.57;1.97;;;17.40;99.90;;;;;;4916489;29;20478;-68
2021/08/17 10:49:50;;;;;;;7.33;2.40;;;17.50;99.90;;;;;;4914033;29;20474;-68
2021/08/17 10:52:48;;;;;;;4.23;2.33;;;17.60;99.90;;;;;;4916386;29;20490;-68
2021/08/17 10:55:37;;;;;;;2.53;2.13;;;17.60;99.90;;;;;;4915058;29;20483;-70
2021/08/17 10:58:06;;;;;;;5.50;2.30;;;17.60;99.90;;;;;;4917177;29;20466;-69
2021/08/17 11:00:54;;;;;;;1.90;1.40;;;17.60;99.90;;;;;;4915181;29;20970;-67
2021/08/17 11:03:46;;;;;;;10.53;4.67;;;17.70;99.90;;;;;;4916145;29;20478;-68
2021/08/17 11:06:39;;;;;;;3.30;1.87;;;17.80;99.90;;;;;;4916679;29;20805;-68
2021/08/17 11:09:07;;;;;;;72.63;23.87;;;17.90;99.90;;;;;;4914707;29;20533;-67
2021/08/17 11:11:34;;;;;;;5.57;2.37;;;18.10;99.90;;;;;;4915008;29;20494;-69
2021/08/17 11:14:03;;;;;;;2.47;1.93;;;18.20;99.90;;;;;;4915070;29;20470;-69
2021/08/17 11:16:29;;;;;;;1.97;1.60;;;18.30;99.90;;;;;;4916386;29;20478;-69
2021/08/17 11:18:59;;;;;;;5.57;2.50;;;18.40;99.90;;;;;;4915827;29;20471;-69
2021/08/17 11:21:31;;;;;;;4.70;2.60;;;18.80;99.90;;;;;;4914201;29;20503;-70
2021/08/17 11:24:15;;;;;;;2.20;2.00;;;18.90;99.90;;;;;;4915312;29;20470;-72
2021/08/17 11:26:44;;;;;;;4.17;2.13;;;18.80;99.90;;;;;;4913743;29;20785;-70
2021/08/17 11:29:16;;;;;;;3.00;2.00;;;18.70;99.90;;;;;;4914522;29;20478;-69
2021/08/17 11:31:47;;;;;;;2.27;2.10;;;18.90;99.90;;;;;;4913053;28;20530;-72
2021/08/17 11:34:19;;;;;;;2.90;2.13;;;18.90;99.90;;;;;;4915495;29;20474;-72
2021/08/17 11:37:01;;;;;;;4.43;2.73;;;18.90;99.90;;;;;;4916073;29;20845;-72
2021/08/17 11:39:31;;;;;;;3.40;3.10;;;18.90;99.90;;;;;;4916330;29;20530;-71
2021/08/17 11:41:58;;;;;;;3.97;2.33;;;19.10;99.90;;;;;;4915183;29;20534;-71
2021/08/17 11:44:26;;;;;;;2.37;2.13;;;19.10;99.90;;;;;;4915665;29;20471;-71
2021/08/17 11:47:04;;;;;;;3.97;3.00;;;19.10;99.90;;;;;;4914924;29;20648;-70
2021/08/17 11:49:32;;;;;;;3.63;3.33;;;19.10;99.90;;;;;;4902324;29;20840;-69
2021/08/17 11:52:06;;;;;;;7.37;3.17;;;19.10;99.90;;;;;;4915406;29;20541;-69
2021/08/17 11:54:33;;;;;;;2.73;2.33;;;19.10;99.90;;;;;;4914948;29;20926;-69
2021/08/17 11:57:02;;;;;;;4.50;2.90;;;19.10;99.90;;;;;;4914901;29;20486;-69
2021/08/17 11:59:41;;;;;;;7.60;2.60;;;19.00;99.90;;;;;;4908042;29;20972;-69
2021/08/17 12:02:08;;;;;;;3.40;2.33;;;18.90;99.90;;;;;;4914153;29;20528;-69
2021/08/17 12:04:36;;;;;;;3.70;2.40;;;19.00;99.90;;;;;;4913319;29;20473;-69
2021/08/17 12:07:13;;;;;;;4.47;2.37;;;19.10;99.90;;;;;;4913012;29;20474;-70
2021/08/17 12:09:41;;;;;;;3.03;2.23;;;19.10;99.90;;;;;;4902601;29;20475;-70
2021/08/17 12:12:10;;;;;;;4.60;2.57;;;19.00;99.90;;;;;;4912786;29;22245;-69
2021/08/17 12:14:37;;;;;;;6.57;2.60;;;18.90;99.90;;;;;;4914988;29;20828;-71
2021/08/17 12:17:06;;;;;;;3.73;1.90;;;18.70;99.90;;;;;;4915032;29;20466;-72
2021/08/17 12:19:33;;;;;;;2.60;1.70;;;18.60;99.90;;;;;;4915397;29;20474;-72
2021/08/17 12:22:02;;;;;;;5.60;2.10;;;18.50;99.90;;;;;;4914511;29;21019;-72
2021/08/17 12:24:34;;;;;;;6.30;2.77;;;18.50;99.90;;;;;;4913169;29;20473;-72
2021/08/17 12:27:06;;;;;;;2.03;1.60;;;18.40;99.90;;;;;;4896540;29;20467;-72
2021/08/17 12:29:40;;;;;;;3.93;2.43;;;18.30;99.90;;;;;;4902956;29;20935;-72
2021/08/17 12:32:18;;;;;;;2.23;2.10;;;18.20;99.90;;;;;;4902652;29;20581;-72
2021/08/17 12:34:46;;;;;;;2.20;1.83;;;18.10;99.90;;;;;;4903654;29;20533;-71
2021/08/17 12:37:32;;;;;;;2.43;2.20;;;18.10;99.90;;;;;;4914547;29;20504;-69
2021/08/17 12:40:00;;;;;;;3.13;2.40;;;18.00;99.90;;;;;;4915770;29;20521;-67
2021/08/17 12:42:28;;;;;;;4.67;2.90;;;18.00;99.90;;;;;;4915187;29;20561;-68
2021/08/17 12:44:56;;;;;;;4.20;2.40;;;17.90;99.90;;;;;;4914911;29;20474;-69
2021/08/17 12:47:25;;;;;;;9.23;2.90;;;17.80;99.90;;;;;;4915306;29;20486;-68
2021/08/17 12:49:54;;;;;;;6.77;2.83;;;17.70;99.90;;;;;;4915861;29;20466;-68
2021/08/17 12:52:31;;;;;;;5.33;3.10;;;17.70;99.90;;;;;;4914699;29;20494;-69
2021/08/17 12:54:59;;;;;;;4.00;3.17;;;17.60;99.90;;;;;;4913387;29;20478;-69
2021/08/17 12:57:28;;;;;;;3.00;2.70;;;17.70;99.90;;;;;;4895934;29;20475;-69
2021/08/17 12:59:56;;;;;;;4.07;2.60;;;17.80;99.90;;;;;;4906143;29;20466;-69
2021/08/17 13:02:23;;;;;;;8.13;3.10;;;17.90;99.90;;;;;;4914911;29;20493;-69
2021/08/17 13:04:50;;;;;;;9.13;2.53;;;17.90;99.90;;;;;;4914515;29;20525;-69
2021/08/17 13:07:17;;;;;;;3.93;3.23;;;17.90;99.90;;;;;;4914100;29;20466;-69
2021/08/17 13:09:45;;;;;;;7.37;4.03;;;18.00;99.90;;;;;;4913693;29;20959;-69
2021/08/17 13:12:12;;;;;;;6.60;4.30;;;18.00;99.90;;;;;;4914908;29;20847;-69
2021/08/17 13:14:39;;;;;;;8.43;4.40;;;18.00;99.90;;;;;;4916055;29;20491;-69
2021/08/17 13:17:05;;;;;;;6.30;3.67;;;18.00;99.90;;;;;;4916185;29;20831;-69
2021/08/17 13:19:33;;;;;;;4.90;4.43;;;18.00;99.90;;;;;;4915830;29;20474;-70
2021/08/17 13:22:00;;;;;;;8.23;3.70;;;18.00;99.90;;;;;;4908370;29;20825;-70
2021/08/17 13:24:28;;;;;;;5.73;3.70;;;18.10;99.90;;;;;;4917169;29;20900;-69
2021/08/17 13:26:57;;;;;;;6.33;4.07;;;18.10;99.90;;;;;;4917613;29;20559;-69
2021/08/17 13:29:23;;;;;;;8.13;4.33;;;18.00;99.90;;;;;;4917791;29;20470;-71
2021/08/17 13:31:50;;;;;;;5.33;4.83;;;17.90;99.90;;;;;;4918540;29;20549;-69
2021/08/17 13:34:17;;;;;;;22.47;13.73;;;17.90;99.90;;;;;;4917736;29;20530;-69
2021/08/17 13:36:43;;;;;;;5.47;4.97;;;17.90;99.90;;;;;;4917294;29;20466;-69
2021/08/17 13:39:10;;;;;;;7.33;5.73;;;17.90;99.90;;;;;;4916650;29;20481;-68
2021/08/17 13:41:37;;;;;;;9.27;5.30;;;17.90;99.90;;;;;;4916737;29;20478;-68
2021/08/17 13:44:05;;;;;;;6.63;4.20;;;18.00;99.90;;;;;;4916537;29;20474;-67
2021/08/17 13:46:32;;;;;;;5.67;4.70;;;18.10;99.90;;;;;;4914274;29;20466;-68
2021/08/17 13:48:59;;;;;;;6.53;4.23;;;18.10;99.90;;;;;;4916476;29;20469;-71
2021/08/17 13:51:26;;;;;;;7.90;5.03;;;18.30;99.90;;;;;;4917385;29;20490;-70
2021/08/17 13:53:52;;;;;;;5.97;5.00;;;18.40;99.90;;;;;;4917311;29;20474;-71
2021/08/17 13:56:21;;;;;;;6.53;4.43;;;18.40;99.90;;;;;;4916516;29;20482;-71
2021/08/17 13:58:47;;;;;;;9.63;4.73;;;18.40;99.90;;;;;;4913423;29;20867;-70
2021/08/17 14:01:16;;;;;;;5.47;4.20;;;18.40;99.90;;;;;;4917660;28;20533;-71
2021/08/17 14:03:44;;;;;;;5.40;4.50;;;18.50;99.90;;;;;;4916946;29;20537;-71
2021/08/17 14:06:12;;;;;;;7.73;5.13;;;18.70;99.90;;;;;;4917178;29;20545;-72
2021/08/17 14:08:40;;;;;;;5.30;4.60;;;18.70;99.90;;;;;;4917295;29;20478;-71
2021/08/17 14:11:07;;;;;;;5.57;4.67;;;18.90;99.90;;;;;;4915983;29;20554;-70
2021/08/17 14:13:34;;;;;;;6.13;4.67;;;19.00;99.90;;;;;;4915464;29;20574;-71
2021/08/17 14:16:03;;;;;;;5.60;5.10;;;19.10;99.90;;;;;;4899808;29;20604;-70
2021/08/17 14:18:33;;;;;;;8.70;4.77;;;19.20;99.90;;;;;;4912322;29;20509;-71
2021/08/17 14:21:01;;;;;;;5.30;4.50;;;19.30;99.90;;;;;;4917107;29;20546;-70
2021/08/17 14:23:29;;;;;;;5.07;4.57;;;19.30;99.90;;;;;;4914435;29;20462;-70
2021/08/17 14:25:56;;;;;;;6.93;5.20;;;19.40;99.90;;;;;;4903063;29;20495;-71
2021/08/17 14:28:23;;;;;;;7.67;5.33;;;19.50;99.90;;;;;;4917532;29;20532;-70
2021/08/17 14:30:51;;;;;;;6.83;5.23;;;19.40;99.90;;;;;;4915719;29;20550;-70
2021/08/17 14:33:19;;;;;;;7.30;6.00;;;19.40;99.90;;;;;;4916671;29;20462;-70
2021/08/17 14:35:47;;;;;;;8.73;5.13;;;19.40;99.90;;;;;;4911611;29;20475;-69
2021/08/17 14:38:14;;;;;;;5.80;4.40;;;19.50;99.90;;;;;;4917050;29;20466;-70
2021/08/17 14:40:42;;;;;;;5.87;4.47;;;19.60;99.90;;;;;;4917086;29;20899;-70
2021/08/17 14:43:08;;;;;;;10.67;5.50;;;19.70;99.90;;;;;;4916038;29;20466;-70
2021/08/17 14:45:37;;;;;;;5.10;4.20;;;19.70;99.90;;;;;;4917563;29;21313;-70
2021/08/17 14:48:04;;;;;;;5.43;4.20;;;19.70;99.90;;;;;;4914972;29;20538;-70
2021/08/17 14:50:31;;;;;;;5.70;5.13;;;19.80;99.90;;;;;;4912433;29;20494;-70
2021/08/17 14:52:59;;;;;;;6.23;4.87;;;19.70;99.90;;;;;;4915959;29;20573;-70
2021/08/17 14:55:26;;;;;;;5.83;5.10;;;19.60;99.90;;;;;;4916561;29;20550;-70
2021/08/17 14:57:54;;;;;;;9.90;5.20;;;19.70;99.90;;;;;;4916702;29;20931;-70
2021/08/17 15:00:20;;;;;;;5.20;4.20;;;19.60;99.90;;;;;;4914659;29;21030;-70
2021/08/17 15:02:47;;;;;;;6.07;5.00;;;19.60;99.90;;;;;;4916700;29;20562;-70
2021/08/17 15:05:15;;;;;;;7.47;5.70;;;19.50;99.90;;;;;;4916542;29;20477;-70
2021/08/17 15:07:43;;;;;;;7.07;5.30;;;19.40;99.90;;;;;;4916820;29;20474;-70
2021/08/17 15:10:14;;;;;;;8.70;5.00;;;19.30;99.90;;;;;;4911522;29;20481;-70
2021/08/17 15:12:41;;;;;;;8.60;5.70;;;19.20;99.90;;;;;;4916002;29;20494;-70
2021/08/17 15:15:09;;;;;;;5.20;4.70;;;19.00;99.90;;;;;;4915850;29;20474;-70
2021/08/17 15:17:37;;;;;;;6.93;4.73;;;18.90;99.90;;;;;;4916213;29;20474;-71
2021/08/17 15:20:06;;;;;;;7.03;4.97;;;18.80;99.90;;;;;;4909978;29;20523;-70
2021/08/17 15:22:34;;;;;;;5.23;4.40;;;18.70;99.90;;;;;;4910467;29;20899;-70
2021/08/17 15:25:00;;;;;;;6.23;4.63;;;18.60;99.90;;;;;;4916315;29;20799;-70
2021/08/17 15:27:28;;;;;;;8.67;5.03;;;18.60;99.90;;;;;;4914463;29;20962;-70
2021/08/17 15:29:55;;;;;;;6.00;5.30;;;18.70;99.90;;;;;;4916048;29;20466;-70
2021/08/17 15:32:22;;;;;;;7.37;5.67;;;18.70;99.90;;;;;;4914957;29;20553;-70
2021/08/17 15:34:49;;;;;;;9.23;5.00;;;18.70;99.90;;;;;;4915150;29;20470;-71
2021/08/17 15:37:15;;;;;;;6.23;5.00;;;18.70;99.90;;;;;;4914392;29;20541;-71
2021/08/17 15:39:42;;;;;;;9.77;6.07;;;18.80;99.90;;;;;;4915944;29;20568;-70
2021/08/17 15:42:10;;;;;;;9.20;4.83;;;18.90;99.90;;;;;;4915055;29;20478;-70
2021/08/17 15:44:38;;;;;;;6.03;4.93;;;18.90;99.90;;;;;;4915943;29;20474;-71
2021/08/17 15:47:05;;;;;;;5.47;4.13;;;18.90;99.90;;;;;;4915562;29;20951;-70
2021/08/17 15:49:31;;;;;;;6.10;4.90;;;18.90;99.90;;;;;;4915702;29;20518;-70
2021/08/17 15:51:58;;;;;;;8.20;4.80;;;18.80;99.90;;;;;;4915072;29;20576;-70
2021/08/17 15:54:25;;;;;;;6.67;5.80;;;18.70;99.90;;;;;;4915440;29;20987;-70
2021/08/17 15:56:52;;;;;;;9.33;4.90;;;18.70;99.90;;;;;;4915348;29;20466;-70
2021/08/17 15:59:19;;;;;;;7.73;5.33;;;18.50;99.90;;;;;;4916079;29;20614;-70
2021/08/17 16:01:47;;;;;;;11.03;5.57;;;18.40;99.90;;;;;;4913511;29;20507;-70
2021/08/17 16:04:13;;;;;;;7.80;5.70;;;18.30;99.90;;;;;;4915899;29;20463;-70
2021/08/17 16:06:40;;;;;;;7.07;5.67;;;18.00;99.90;;;;;;4915154;29;20610;-71
2021/08/17 16:09:07;;;;;;;7.43;5.57;;;17.90;99.90;;;;;;4915796;29;20545;-70
2021/08/17 16:11:34;;;;;;;6.50;5.30;;;17.70;99.90;;;;;;4911164;29;20501;-71
2021/08/17 16:14:02;;;;;;;6.80;6.07;;;17.60;99.90;;;;;;4915351;29;20649;-71
2021/08/17 16:16:28;;;;;;;7.40;4.77;;;17.60;99.90;;;;;;4907453;29;20873;-71
2021/08/17 16:18:56;;;;;;;5.03;4.43;;;17.60;99.90;;;;;;4902058;29;20899;-71
2021/08/17 16:21:23;;;;;;;9.37;5.67;;;17.50;99.90;;;;;;4915025;29;20891;-71
2021/08/17 16:23:52;;;;;;;6.10;4.53;;;17.50;99.90;;;;;;4915509;29;20518;-71
2021/08/17 16:26:18;;;;;;;7.20;5.27;;;17.50;99.90;;;;;;4915535;29;20476;-69
2021/08/17 16:28:45;;;;;;;9.17;6.00;;;17.50;99.90;;;;;;4914993;29;20478;-69
2021/08/17 16:31:12;;;;;;;7.70;5.70;;;17.50;99.90;;;;;;4914286;29;20501;-69
2021/08/17 16:33:39;;;;;;;8.43;5.73;;;17.50;99.90;;;;;;4913665;29;20546;-69
2021/08/17 16:36:07;;;;;;;6.93;5.50;;;17.50;99.90;;;;;;4909299;29;20475;-69
2021/08/17 16:38:34;;;;;;;7.17;5.23;;;17.50;99.90;;;;;;4907774;29;20479;-69
2021/08/17 16:41:01;;;;;;;5.50;5.00;;;17.50;99.90;;;;;;4911545;29;20899;-69
2021/08/17 16:43:28;;;;;;;6.37;5.50;;;17.50;99.90;;;;;;4912890;29;20472;-69
2021/08/17 16:45:55;;;;;;;6.50;5.37;;;17.50;99.90;;;;;;4912170;29;20849;-68
2021/08/17 16:48:21;;;;;;;8.60;5.33;;;17.50;99.90;;;;;;4913233;29;20478;-69
2021/08/17 16:50:49;;;;;;;8.70;6.10;;;17.50;99.90;;;;;;4916364;29;20502;-69
2021/08/17 16:53:17;;;;;;;7.77;5.80;;;17.60;99.90;;;;;;4914831;29;20498;-69
2021/08/17 16:55:44;;;;;;;9.30;5.87;;;17.60;99.90;;;;;;4914178;29;20549;-69
2021/08/17 16:58:11;;;;;;;8.90;5.00;;;17.70;99.90;;;;;;4916252;29;20494;-69